| time (UTC) | temp F | wind direction | speed MPH | gust MPH | rain 1hr in | rain 24hr in | rain mn in | humidity % | barometer mb |
| 20260504020058 | 46 | 0 | 0.0 | 0.0 | 0.00 | 0.00 | 0.00 | 84 | 1016.8 |
| 20260504014551 | 47 | 0 | 0.0 | 0.0 | 0.00 | 0.00 | 0.00 | 83 | 1016.7 |
| 20260504013048 | 48 | 0 | 0.0 | 0.0 | 0.00 | 0.00 | 0.00 | 81 | 1016.4 |
| 20260504011553 | 49 | 0 | 0.0 | 0.0 | 0.00 | 0.00 | 0.00 | 80 | 1016.6 |
| 20260504010054 | 50 | 0 | 0.0 | 0.0 | 0.00 | 0.00 | 0.00 | 77 | 1016.6 |
| 20260504004549 | 52 | 0 | 0.0 | 0.0 | 0.00 | 0.00 | 0.00 | 75 | 1016.6 |
| 20260504003052 | 53 | 0 | 0.0 | 0.0 | 0.00 | 0.00 | 0.00 | 73 | 1016.6 |
| 20260504001553 | 55 | 0 | 0.0 | 0.0 | 0.00 | 0.00 | 0.00 | 70 | 1016.7 |
| 20260504000053 | 57 | 0 | 0.0 | 2.0 | 0.00 | 0.00 | 0.00 | 66 | 1017.0 |
| 20260503234615 | 59 | 0 | 0.0 | 3.0 | 0.00 | 0.00 | 0.00 | 64 | 1017.2 |
| 20260503233052 | 60 | 0 | 0.0 | 4.0 | 0.00 | 0.00 | 0.00 | 59 | 1017.2 |
| 20260503231553 | 62 | 0 | 0.0 | 2.0 | 0.00 | 0.00 | 0.00 | 58 | 1017.2 |
| 20260503230048 | 64 | 0 | 0.0 | 6.0 | 0.00 | 0.00 | 0.00 | 47 | 1017.2 |
| 20260503224550 | 64 | 0 | 1.0 | 6.0 | 0.00 | 0.00 | 0.00 | 43 | 1017.4 |
| 20260503223047 | 65 | 207 | 1.0 | 10.0 | 0.00 | 0.00 | 0.00 | 42 | 1017.5 |
| 20260503221559 | 65 | 271 | 1.0 | 9.0 | 0.00 | 0.00 | 0.00 | 43 | 1017.7 |
| 20260503220055 | 65 | 0 | 2.0 | 10.0 | 0.00 | 0.00 | 0.00 | 42 | 1017.9 |
| 20260503214549 | 66 | 200 | 3.0 | 9.0 | 0.00 | 0.00 | 0.00 | 44 | 1018.2 |
| 20260503213050 | 66 | 206 | 3.0 | 6.0 | 0.00 | 0.00 | 0.00 | 40 | 1018.3 |
| 20260503211552 | 66 | 163 | 2.0 | 12.0 | 0.00 | 0.00 | 0.00 | 42 | 1018.4 |
| 20260503210047 | 66 | 348 | 2.0 | 10.0 | 0.00 | 0.00 | 0.00 | 39 | 1018.5 |
| 20260503204556 | 66 | 195 | 2.0 | 8.0 | 0.00 | 0.00 | 0.00 | 39 | 1019.1 |
| 20260503203056 | 65 | 164 | 3.0 | 7.0 | 0.00 | 0.00 | 0.00 | 43 | 1019.1 |
| 20260503201551 | 65 | 153 | 1.0 | 7.0 | 0.00 | 0.00 | 0.00 | 43 | 1019.5 |
| 20260503200056 | 64 | 162 | 3.0 | 8.0 | 0.00 | 0.00 | 0.00 | 38 | 1019.8 |
| 20260503194558 | 63 | 202 | 3.0 | 11.0 | 0.00 | 0.00 | 0.00 | 40 | 1020.0 |
| 20260503193440 | 64 | 101 | 1.0 | 9.0 | 0.00 | 0.00 | 0.00 | 37 | 1020.2 |
| 20260503191555 | 63 | 153 | 3.0 | 10.0 | 0.00 | 0.00 | 0.00 | 40 | 1020.3 |
| 20260503190049 | 63 | 246 | 1.0 | 5.0 | 0.00 | 0.00 | 0.00 | 45 | 1020.4 |
| 20260503184551 | 62 | 273 | 1.0 | 10.0 | 0.00 | 0.00 | 0.00 | 44 | 1020.7 |
| 20260503183052 | 62 | 193 | 1.0 | 8.0 | 0.00 | 0.00 | 0.00 | 46 | 1020.9 |
| 20260503181551 | 62 | 202 | 1.0 | 8.0 | 0.00 | 0.00 | 0.00 | 47 | 1021.2 |
| 20260503180059 | 61 | 205 | 1.0 | 10.0 | 0.00 | 0.00 | 0.00 | 49 | 1021.3 |
| 20260503174549 | 60 | 204 | 2.0 | 8.0 | 0.00 | 0.00 | 0.00 | 50 | 1021.6 |
| 20260503173046 | 60 | 293 | 1.0 | 8.0 | 0.00 | 0.00 | 0.00 | 49 | 1021.8 |
| 20260503171552 | 59 | 336 | 1.0 | 7.0 | 0.00 | 0.00 | 0.00 | 46 | 1022.0 |
| 20260503110106 | 34 | 0 | 0.0 | 0.0 | 0.00 | 0.00 | 0.00 | 95 | 1021.7 |
| 20260503081545 | 35 | 0 | 0.0 | 0.0 | 0.00 | 0.00 | 0.00 | 94 | 1021.1 |
| 20260503071602 | 36 | 0 | 0.0 | 0.0 | 0.00 | 0.00 | 0.00 | 94 | 1020.7 |
| 20260503060110 | 38 | 0 | 0.0 | 0.0 | 0.00 | 0.00 | 0.00 | 94 | 1020.6 |
| 20260503054556 | 38 | 0 | 0.0 | 0.0 | 0.00 | 0.00 | 0.00 | 93 | 1020.6 |
| 20260503053051 | 38 | 0 | 0.0 | 0.0 | 0.00 | 0.00 | 0.00 | 93 | 1020.7 |
| 20260503051545 | 38 | 0 | 0.0 | 0.0 | 0.00 | 0.00 | 0.00 | 93 | 1020.6 |
| 20260503050050 | 39 | 0 | 0.0 | 0.0 | 0.00 | 0.00 | 0.00 | 93 | 1020.4 |
| 20260503044550 | 39 | 0 | 0.0 | 0.0 | 0.00 | 0.00 | 0.00 | 93 | 1020.4 |
| 20260503043050 | 39 | 0 | 0.0 | 0.0 | 0.00 | 0.00 | 0.00 | 92 | 1020.5 |
| 20260503041551 | 40 | 0 | 0.0 | 0.0 | 0.00 | 0.00 | 0.00 | 92 | 1020.3 |
| 20260503040104 | 40 | 0 | 0.0 | 0.0 | 0.00 | 0.00 | 0.00 | 92 | 1020.2 |
| 20260503034546 | 41 | 0 | 0.0 | 0.0 | 0.00 | 0.00 | 0.00 | 92 | 1020.1 |
| 20260503033052 | 42 | 0 | 0.0 | 0.0 | 0.00 | 0.00 | 0.00 | 91 | 1020.1 |
| 20260503031601 | 42 | 0 | 0.0 | 0.0 | 0.00 | 0.00 | 0.00 | 91 | 1020.0 |
| 20260503030050 | 43 | 0 | 0.0 | 1.0 | 0.00 | 0.00 | 0.00 | 91 | 1020.0 |
| 20260503024550 | 44 | 0 | 0.0 | 2.0 | 0.00 | 0.00 | 0.00 | 90 | 1020.0 |
| 20260503023053 | 44 | 0 | 0.0 | 1.0 | 0.00 | 0.00 | 0.00 | 90 | 1019.8 |
| 20260503021549 | 45 | 0 | 0.0 | 1.0 | 0.00 | 0.00 | 0.00 | 89 | 1019.6 |